This is the latest recevied weather packets stored in our database for station/object KQ4DLB-13. If no packets are shown the sender has not sent any weather packets the latest 10 day(s).
| Time | Temp. | Humidity | Pressure | Rain* | Wind** | Luminosity | Snow |
|---|---|---|---|---|---|---|---|
| 1777560002 | 14.44° C | 49% | 992.3 hPa | 0 mm | - | 113 W/m² | - |
| 1777559702 | 14.44° C | 51% | 992.5 hPa | 0 mm | - | 390 W/m² | - |
| 1777559402 | 13.89° C | 52% | 992.6 hPa | 0 mm | - | 438 W/m² | - |
| 1777559103 | 13.89° C | 52% | 992.8 hPa | 0 mm | - | 570 W/m² | - |
| 1777558802 | 13.89° C | 53% | 992.8 hPa | 0 mm | - | 526 W/m² | - |
| 1777558501 | 13.89° C | 54% | 992.7 hPa | 0 mm | - | 534 W/m² | - |
| 1777558202 | 13.89° C | 54% | 992.7 hPa | 0 mm | - | 521 W/m² | - |
| 1777557902 | 13.33° C | 54% | 992.7 hPa | 0 mm | - | 504 W/m² | - |
| 1777557602 | 13.33° C | 56% | 992.5 hPa | 0 mm | - | 490 W/m² | - |
| 1777557302 | 13.33° C | 56% | 992.4 hPa | 0 mm | - | 469 W/m² | - |
| 1777557003 | 13.33° C | 57% | 992.4 hPa | 0 mm | - | 450 W/m² | - |
| 1777556702 | 12.78° C | 60% | 992.6 hPa | 0 mm | - | 429 W/m² | - |
| 1777556403 | 12.78° C | 59% | 992.6 hPa | 0 mm | - | 410 W/m² | - |
| 1777556102 | 12.22° C | 61% | 992.6 hPa | 0 mm | - | 391 W/m² | - |
| 1777555802 | 12.22° C | 63% | 992.6 hPa | 0 mm | - | 372 W/m² | - |
| 1777555503 | 11.67° C | 67% | 992.6 hPa | 0 mm | - | 225 W/m² | - |
| 1777555202 | 11.67° C | 68% | 992.4 hPa | 0 mm | - | - | - |
| 1777554903 | 11.67° C | 68% | 992.4 hPa | 0 mm | - | - | - |
| 1777554602 | 11.11° C | 70% | 992.4 hPa | 0 mm | - | - | - |
| 1777554308 | 11.11° C | 72% | 992.4 hPa | 0 mm | - | - | - |
| 1777554002 | 10.56° C | 73% | 992.4 hPa | 0 mm | - | - | - |
| 1777553702 | 10.56° C | 75% | 992.6 hPa | 0 mm | - | - | - |
| 1777553402 | 10.56° C | 78% | 992.6 hPa | 0 mm | - | - | - |
| 1777553102 | 10° C | 78% | 992.6 hPa | 0 mm | - | - | - |
| 1777552802 | 10° C | 78% | 992.4 hPa | 0 mm | - | - | - |
* Rain latest hour (hover to see other rain measurements)
** Current wind speed in m/s (hover to see current wind gust speed)